createdAt,value
2023-04-04T00:09:12.147Z,100
2023-04-04T00:19:14.369Z,100
2023-04-04T00:29:16.412Z,100
2023-04-04T00:49:20.686Z,100
2023-04-04T00:59:22.788Z,100
2023-04-04T01:09:24.717Z,100
2023-04-04T01:19:26.661Z,100
2023-04-04T01:29:28.600Z,100
2023-04-04T01:39:30.562Z,100
2023-04-04T01:59:34.539Z,100
2023-04-04T02:09:36.310Z,100
2023-04-04T02:19:38.753Z,100
2023-04-04T02:29:40.763Z,100
2023-04-04T02:49:44.615Z,100
2023-04-04T02:59:46.379Z,100
2023-04-04T03:09:48.318Z,100
2023-04-04T03:19:50.735Z,100
2023-04-04T03:29:53.161Z,100
2023-04-04T03:39:55.712Z,100
2023-04-04T03:49:57.965Z,100
2023-04-04T04:00:00.389Z,100
2023-04-04T04:10:02.132Z,100
2023-04-04T04:20:03.945Z,100
2023-04-04T04:30:05.852Z,100
2023-04-04T04:40:07.653Z,100
2023-04-04T05:50:23.789Z,100
2023-04-04T06:30:32.689Z,100
2023-04-04T06:40:34.313Z,100
2023-04-04T06:50:36.042Z,100
2023-04-04T07:00:38.473Z,100
2023-04-04T07:10:41.206Z,100
2023-04-04T07:20:42.704Z,100
2023-04-04T07:50:48.880Z,100
2023-04-04T08:00:51.308Z,100
2023-04-04T08:20:56.004Z,100
2023-04-04T08:30:57.959Z,100
2023-04-04T08:40:59.986Z,100
2023-04-04T08:51:02.154Z,100
2023-04-04T09:01:04.457Z,100
2023-04-04T09:21:09.491Z,100
2023-04-04T09:31:12.144Z,100
2023-04-04T09:41:13.786Z,100
2023-04-04T09:51:15.734Z,100
2023-04-04T10:01:17.964Z,100
2023-04-04T10:11:20.412Z,100
2023-04-04T10:21:22.644Z,100
2023-04-04T10:31:25.162Z,100
2023-04-04T10:41:26.907Z,100
2023-04-04T10:51:29.037Z,100
2023-04-04T11:01:30.840Z,100
2023-04-04T11:11:32.877Z,100
2023-04-04T11:21:35.280Z,100
2023-04-04T11:31:37.525Z,100
2023-04-04T11:41:39.590Z,100
2023-04-04T11:51:41.648Z,100
2023-04-04T12:11:45.176Z,100
2023-04-04T12:21:47.616Z,100
2023-04-04T12:31:49.472Z,100
2023-04-04T12:41:52.087Z,100
2023-04-04T12:51:54.121Z,100
2023-04-04T13:01:56.771Z,100
2023-04-04T13:11:58.461Z,99
2023-04-04T13:22:00.750Z,95
2023-04-04T13:32:03.072Z,92
2023-04-04T13:42:05.511Z,90
2023-04-04T13:52:07.500Z,88
2023-04-04T14:02:09.909Z,85
2023-04-04T14:22:14.261Z,80
2023-04-04T14:32:16.296Z,79
2023-04-04T14:52:20.635Z,76
2023-04-04T15:02:22.305Z,77
2023-04-04T15:12:24.604Z,74
2023-04-04T15:22:26.249Z,73
2023-04-04T15:32:27.999Z,72
2023-04-04T15:42:30.126Z,72
2023-04-04T15:52:32.362Z,71
2023-04-04T16:02:34.902Z,71
2023-04-04T16:12:37.259Z,70
2023-04-04T16:22:38.863Z,70
2023-04-04T16:32:40.555Z,70
2023-04-04T16:42:42.963Z,71
2023-04-04T16:52:45.594Z,71
2023-04-04T17:02:47.846Z,71
2023-04-04T17:12:49.764Z,71
2023-04-04T17:22:51.652Z,71
2023-04-04T17:32:53.845Z,71
2023-04-04T17:42:55.818Z,72
2023-04-04T17:52:57.627Z,73
2023-04-04T18:02:59.948Z,74
2023-04-04T18:13:01.708Z,76
2023-04-04T18:23:04.327Z,77
2023-04-04T18:33:06.086Z,79
2023-04-04T18:43:08.073Z,82
2023-04-04T18:43:29.995Z,82
2023-04-04T18:53:16.959Z,84
2023-04-04T19:03:18.981Z,86
2023-04-04T19:13:20.920Z,88
2023-04-04T19:23:22.992Z,89
2023-04-04T19:33:25.093Z,91
2023-04-04T19:43:27.529Z,92
2023-04-04T19:53:29.875Z,94
2023-04-04T20:03:32.293Z,96
2023-04-04T20:23:36.491Z,100
2023-04-04T20:43:40.691Z,100
2023-04-04T20:53:43.247Z,100
2023-04-04T21:03:45.804Z,100
2023-04-04T21:13:47.956Z,100
2023-04-04T21:23:49.937Z,100
2023-04-04T21:33:51.931Z,100
2023-04-04T21:43:54.230Z,100
2023-04-04T21:53:56.814Z,100
2023-04-04T22:03:59.383Z,100
2023-04-04T22:14:01.105Z,100
2023-04-04T22:24:03.447Z,100
2023-04-04T22:34:05.750Z,100
2023-04-04T22:44:07.643Z,100
2023-04-04T22:54:10.024Z,100
2023-04-04T23:04:12.227Z,100
2023-04-04T23:14:14.870Z,100
2023-04-04T23:34:19.398Z,100
2023-04-04T23:44:21.941Z,100
2023-04-04T23:54:24.311Z,100
